sensor_id;sensor_type;location;lat;lon;timestamp;P1;durP1;ratioP1;P2;durP2;ratioP2
41436;SDS011;27178;49.460;10.850;2023-04-24T00:01:51;1.55;;;1.10;;
41436;SDS011;27178;49.460;10.850;2023-04-24T00:04:19;1.67;;;1.58;;
41436;SDS011;27178;49.460;10.850;2023-04-24T00:06:48;1.55;;;1.45;;
41436;SDS011;27178;49.460;10.850;2023-04-24T00:09:20;3.75;;;1.40;;
41436;SDS011;27178;49.460;10.850;2023-04-24T00:11:48;2.50;;;1.15;;
41436;SDS011;27178;49.460;10.850;2023-04-24T00:14:16;1.13;;;1.13;;
41436;SDS011;27178;49.460;10.850;2023-04-24T00:16:44;1.30;;;1.20;;
41436;SDS011;27178;49.460;10.850;2023-04-24T00:19:14;1.83;;;1.40;;
41436;SDS011;27178;49.460;10.850;2023-04-24T00:21:42;1.63;;;1.50;;
41436;SDS011;27178;49.460;10.850;2023-04-24T00:24:10;2.75;;;1.58;;
41436;SDS011;27178;49.460;10.850;2023-04-24T00:26:39;1.30;;;1.20;;
41436;SDS011;27178;49.460;10.850;2023-04-24T00:29:07;1.58;;;1.25;;
41436;SDS011;27178;49.460;10.850;2023-04-24T00:31:35;1.40;;;1.30;;
41436;SDS011;27178;49.460;10.850;2023-04-24T00:34:03;2.72;;;1.30;;
41436;SDS011;27178;49.460;10.850;2023-04-24T00:36:34;1.92;;;1.38;;
41436;SDS011;27178;49.460;10.850;2023-04-24T00:39:02;1.63;;;1.23;;
41436;SDS011;27178;49.460;10.850;2023-04-24T00:41:30;1.90;;;1.73;;
41436;SDS011;27178;49.460;10.850;2023-04-24T00:43:58;1.30;;;1.20;;
41436;SDS011;27178;49.460;10.850;2023-04-24T00:46:26;1.50;;;1.40;;
41436;SDS011;27178;49.460;10.850;2023-04-24T00:48:55;0.90;;;0.90;;
41436;SDS011;27178;49.460;10.850;2023-04-24T00:51:24;1.02;;;1.02;;
41436;SDS011;27178;49.460;10.850;2023-04-24T00:53:53;1.05;;;1.00;;
41436;SDS011;27178;49.460;10.850;2023-04-24T00:56:21;1.65;;;1.25;;
41436;SDS011;27178;49.460;10.850;2023-04-24T00:58:49;1.42;;;1.20;;
41436;SDS011;27178;49.460;10.850;2023-04-24T01:01:18;1.33;;;1.10;;
41436;SDS011;27178;49.460;10.850;2023-04-24T01:03:48;0.90;;;0.90;;
41436;SDS011;27178;49.460;10.850;2023-04-24T01:06:19;2.33;;;0.90;;
41436;SDS011;27178;49.460;10.850;2023-04-24T01:08:47;1.30;;;1.20;;
41436;SDS011;27178;49.460;10.850;2023-04-24T01:11:18;0.90;;;0.90;;
41436;SDS011;27178;49.460;10.850;2023-04-24T01:13:47;1.27;;;1.00;;
41436;SDS011;27178;49.460;10.850;2023-04-24T01:16:15;0.90;;;0.90;;
41436;SDS011;27178;49.460;10.850;2023-04-24T01:18:44;1.17;;;0.93;;
41436;SDS011;27178;49.460;10.850;2023-04-24T01:21:12;2.75;;;1.10;;
41436;SDS011;27178;49.460;10.850;2023-04-24T01:23:44;1.10;;;0.90;;
41436;SDS011;27178;49.460;10.850;2023-04-24T01:26:13;2.05;;;1.17;;
41436;SDS011;27178;49.460;10.850;2023-04-24T01:28:43;0.88;;;0.88;;
41436;SDS011;27178;49.460;10.850;2023-04-24T01:31:11;1.23;;;0.90;;
41436;SDS011;27178;49.460;10.850;2023-04-24T01:33:40;1.10;;;1.00;;
41436;SDS011;27178;49.460;10.850;2023-04-24T01:36:08;0.80;;;0.80;;
41436;SDS011;27178;49.460;10.850;2023-04-24T01:38:38;0.88;;;0.88;;
41436;SDS011;27178;49.460;10.850;2023-04-24T01:41:08;1.15;;;1.05;;
41436;SDS011;27178;49.460;10.850;2023-04-24T01:43:36;0.95;;;0.95;;
41436;SDS011;27178;49.460;10.850;2023-04-24T01:46:05;1.30;;;1.05;;
41436;SDS011;27178;49.460;10.850;2023-04-24T01:48:33;1.42;;;1.00;;
41436;SDS011;27178;49.460;10.850;2023-04-24T01:51:02;0.73;;;0.73;;
41436;SDS011;27178;49.460;10.850;2023-04-24T01:53:30;3.08;;;0.90;;
41436;SDS011;27178;49.460;10.850;2023-04-24T01:55:58;2.38;;;0.95;;
41436;SDS011;27178;49.460;10.850;2023-04-24T01:58:28;1.20;;;0.90;;
41436;SDS011;27178;49.460;10.850;2023-04-24T02:00:56;2.42;;;0.90;;
41436;SDS011;27178;49.460;10.850;2023-04-24T02:03:25;1.60;;;0.90;;
41436;SDS011;27178;49.460;10.850;2023-04-24T02:05:54;1.27;;;1.17;;
41436;SDS011;27178;49.460;10.850;2023-04-24T02:08:22;0.75;;;0.75;;
41436;SDS011;27178;49.460;10.850;2023-04-24T02:10:50;1.30;;;1.20;;
41436;SDS011;27178;49.460;10.850;2023-04-24T02:13:18;1.15;;;1.00;;
41436;SDS011;27178;49.460;10.850;2023-04-24T02:15:48;1.20;;;1.10;;
41436;SDS011;27178;49.460;10.850;2023-04-24T02:18:16;2.53;;;0.90;;
41436;SDS011;27178;49.460;10.850;2023-04-24T02:20:44;1.08;;;0.98;;
41436;SDS011;27178;49.460;10.850;2023-04-24T02:23:12;0.70;;;0.70;;
41436;SDS011;27178;49.460;10.850;2023-04-24T02:25:40;0.95;;;0.95;;
41436;SDS011;27178;49.460;10.850;2023-04-24T02:28:09;0.85;;;0.85;;
41436;SDS011;27178;49.460;10.850;2023-04-24T02:30:37;1.13;;;1.00;;
41436;SDS011;27178;49.460;10.850;2023-04-24T02:33:06;1.60;;;0.77;;
41436;SDS011;27178;49.460;10.850;2023-04-24T02:35:34;1.70;;;1.60;;
41436;SDS011;27178;49.460;10.850;2023-04-24T02:38:02;2.63;;;2.17;;
41436;SDS011;27178;49.460;10.850;2023-04-24T02:40:30;3.15;;;1.33;;
41436;SDS011;27178;49.460;10.850;2023-04-24T02:42:59;1.50;;;1.13;;
41436;SDS011;27178;49.460;10.850;2023-04-24T02:45:27;1.55;;;0.90;;
41436;SDS011;27178;49.460;10.850;2023-04-24T02:47:55;0.93;;;0.93;;
41436;SDS011;27178;49.460;10.850;2023-04-24T02:50:25;1.73;;;1.10;;
41436;SDS011;27178;49.460;10.850;2023-04-24T02:52:53;1.75;;;1.33;;
41436;SDS011;27178;49.460;10.850;2023-04-24T02:55:21;0.68;;;0.68;;
41436;SDS011;27178;49.460;10.850;2023-04-24T02:57:49;0.93;;;0.93;;
41436;SDS011;27178;49.460;10.850;2023-04-24T03:00:17;2.83;;;0.90;;
41436;SDS011;27178;49.460;10.850;2023-04-24T03:02:46;3.90;;;0.98;;
41436;SDS011;27178;49.460;10.850;2023-04-24T03:05:16;1.00;;;0.90;;
41436;SDS011;27178;49.460;10.850;2023-04-24T03:07:45;1.17;;;0.98;;
41436;SDS011;27178;49.460;10.850;2023-04-24T03:10:13;1.65;;;1.00;;
41436;SDS011;27178;49.460;10.850;2023-04-24T03:12:41;0.85;;;0.85;;
41436;SDS011;27178;49.460;10.850;2023-04-24T03:15:10;1.40;;;1.00;;
41436;SDS011;27178;49.460;10.850;2023-04-24T03:17:38;2.03;;;1.15;;
41436;SDS011;27178;49.460;10.850;2023-04-24T03:20:07;1.23;;;1.08;;
41436;SDS011;27178;49.460;10.850;2023-04-24T03:22:36;1.23;;;1.13;;
41436;SDS011;27178;49.460;10.850;2023-04-24T03:25:06;1.83;;;1.42;;
41436;SDS011;27178;49.460;10.850;2023-04-24T03:27:35;3.00;;;1.70;;
41436;SDS011;27178;49.460;10.850;2023-04-24T03:30:06;1.83;;;1.67;;
41436;SDS011;27178;49.460;10.850;2023-04-24T03:32:34;1.35;;;1.25;;
41436;SDS011;27178;49.460;10.850;2023-04-24T03:35:03;1.70;;;1.45;;
41436;SDS011;27178;49.460;10.850;2023-04-24T03:37:31;1.48;;;1.30;;
41436;SDS011;27178;49.460;10.850;2023-04-24T03:39:59;1.67;;;1.13;;
41436;SDS011;27178;49.460;10.850;2023-04-24T03:42:29;1.80;;;1.20;;
41436;SDS011;27178;49.460;10.850;2023-04-24T03:44:57;2.45;;;1.90;;
41436;SDS011;27178;49.460;10.850;2023-04-24T03:47:25;2.95;;;2.00;;
41436;SDS011;27178;49.460;10.850;2023-04-24T03:49:53;1.83;;;1.30;;
41436;SDS011;27178;49.460;10.850;2023-04-24T03:52:22;0.93;;;0.93;;
41436;SDS011;27178;49.460;10.850;2023-04-24T03:54:50;2.15;;;1.17;;
41436;SDS011;27178;49.460;10.850;2023-04-24T03:57:18;1.20;;;1.10;;
41436;SDS011;27178;49.460;10.850;2023-04-24T03:59:47;1.02;;;1.02;;
41436;SDS011;27178;49.460;10.850;2023-04-24T04:02:15;1.35;;;1.00;;
41436;SDS011;27178;49.460;10.850;2023-04-24T04:04:44;1.75;;;1.13;;
41436;SDS011;27178;49.460;10.850;2023-04-24T04:07:12;1.88;;;1.30;;
41436;SDS011;27178;49.460;10.850;2023-04-24T04:09:41;1.30;;;1.20;;
41436;SDS011;27178;49.460;10.850;2023-04-24T04:12:09;1.63;;;1.23;;
41436;SDS011;27178;49.460;10.850;2023-04-24T04:14:37;3.35;;;1.10;;
41436;SDS011;27178;49.460;10.850;2023-04-24T04:17:07;1.25;;;1.10;;
41436;SDS011;27178;49.460;10.850;2023-04-24T04:19:35;2.00;;;1.20;;
41436;SDS011;27178;49.460;10.850;2023-04-24T04:22:03;1.23;;;1.00;;
41436;SDS011;27178;49.460;10.850;2023-04-24T04:24:31;1.20;;;1.10;;
41436;SDS011;27178;49.460;10.850;2023-04-24T04:26:59;2.15;;;1.20;;
41436;SDS011;27178;49.460;10.850;2023-04-24T04:29:27;1.70;;;1.42;;
41436;SDS011;27178;49.460;10.850;2023-04-24T04:31:55;1.30;;;1.20;;
41436;SDS011;27178;49.460;10.850;2023-04-24T04:34:25;2.35;;;1.27;;
41436;SDS011;27178;49.460;10.850;2023-04-24T04:36:53;1.38;;;1.27;;
41436;SDS011;27178;49.460;10.850;2023-04-24T04:39:21;2.90;;;1.52;;
41436;SDS011;27178;49.460;10.850;2023-04-24T04:41:50;1.88;;;1.38;;
41436;SDS011;27178;49.460;10.850;2023-04-24T04:44:19;1.90;;;1.10;;
41436;SDS011;27178;49.460;10.850;2023-04-24T04:46:47;2.38;;;1.40;;
41436;SDS011;27178;49.460;10.850;2023-04-24T04:49:16;1.85;;;1.30;;
41436;SDS011;27178;49.460;10.850;2023-04-24T04:51:46;1.67;;;1.05;;
41436;SDS011;27178;49.460;10.850;2023-04-24T04:54:15;1.00;;;1.00;;
41436;SDS011;27178;49.460;10.850;2023-04-24T04:56:43;2.13;;;1.20;;
41436;SDS011;27178;49.460;10.850;2023-04-24T04:59:11;1.25;;;1.15;;
41436;SDS011;27178;49.460;10.850;2023-04-24T05:01:40;1.80;;;1.13;;
41436;SDS011;27178;49.460;10.850;2023-04-24T05:04:08;1.38;;;1.10;;
41436;SDS011;27178;49.460;10.850;2023-04-24T05:06:37;1.45;;;1.00;;
41436;SDS011;27178;49.460;10.850;2023-04-24T05:09:07;3.83;;;1.08;;
41436;SDS011;27178;49.460;10.850;2023-04-24T05:11:35;1.45;;;1.35;;
41436;SDS011;27178;49.460;10.850;2023-04-24T05:14:03;2.58;;;1.40;;
41436;SDS011;27178;49.460;10.850;2023-04-24T05:16:31;3.47;;;1.33;;
41436;SDS011;27178;49.460;10.850;2023-04-24T05:19:00;1.40;;;1.27;;
41436;SDS011;27178;49.460;10.850;2023-04-24T05:21:28;2.25;;;1.30;;
41436;SDS011;27178;49.460;10.850;2023-04-24T05:23:57;1.30;;;1.17;;
41436;SDS011;27178;49.460;10.850;2023-04-24T05:26:26;1.33;;;1.23;;
41436;SDS011;27178;49.460;10.850;2023-04-24T05:28:54;1.48;;;1.27;;
41436;SDS011;27178;49.460;10.850;2023-04-24T05:31:23;2.13;;;1.20;;
41436;SDS011;27178;49.460;10.850;2023-04-24T05:33:52;2.38;;;1.30;;
41436;SDS011;27178;49.460;10.850;2023-04-24T05:36:20;1.67;;;1.25;;
41436;SDS011;27178;49.460;10.850;2023-04-24T05:38:48;1.35;;;1.10;;
41436;SDS011;27178;49.460;10.850;2023-04-24T05:41:16;1.55;;;1.20;;
41436;SDS011;27178;49.460;10.850;2023-04-24T05:43:46;0.90;;;0.90;;
41436;SDS011;27178;49.460;10.850;2023-04-24T05:46:15;1.67;;;1.40;;
41436;SDS011;27178;49.460;10.850;2023-04-24T05:48:43;1.98;;;0.93;;
41436;SDS011;27178;49.460;10.850;2023-04-24T05:51:12;1.25;;;1.15;;
41436;SDS011;27178;49.460;10.850;2023-04-24T05:53:40;1.45;;;1.00;;
41436;SDS011;27178;49.460;10.850;2023-04-24T05:56:08;1.50;;;1.05;;
41436;SDS011;27178;49.460;10.850;2023-04-24T05:58:36;1.05;;;0.95;;
41436;SDS011;27178;49.460;10.850;2023-04-24T06:01:07;1.00;;;0.90;;
41436;SDS011;27178;49.460;10.850;2023-04-24T06:03:35;3.25;;;1.15;;
41436;SDS011;27178;49.460;10.850;2023-04-24T06:06:05;0.80;;;0.80;;
41436;SDS011;27178;49.460;10.850;2023-04-24T06:08:33;1.05;;;1.00;;
41436;SDS011;27178;49.460;10.850;2023-04-24T06:11:02;1.80;;;1.10;;
41436;SDS011;27178;49.460;10.850;2023-04-24T06:13:30;2.22;;;1.08;;
41436;SDS011;27178;49.460;10.850;2023-04-24T06:15:59;1.38;;;0.90;;
41436;SDS011;27178;49.460;10.850;2023-04-24T06:18:28;1.15;;;1.00;;
41436;SDS011;27178;49.460;10.850;2023-04-24T06:20:57;1.35;;;1.10;;
41436;SDS011;27178;49.460;10.850;2023-04-24T06:23:25;1.60;;;1.02;;
41436;SDS011;27178;49.460;10.850;2023-04-24T06:25:54;1.15;;;1.02;;
41436;SDS011;27178;49.460;10.850;2023-04-24T06:28:22;1.45;;;1.13;;
41436;SDS011;27178;49.460;10.850;2023-04-24T06:30:50;0.60;;;0.60;;
41436;SDS011;27178;49.460;10.850;2023-04-24T06:33:18;2.42;;;1.25;;
41436;SDS011;27178;49.460;10.850;2023-04-24T06:35:50;0.60;;;0.60;;
41436;SDS011;27178;49.460;10.850;2023-04-24T06:38:19;0.85;;;0.85;;
41436;SDS011;27178;49.460;10.850;2023-04-24T06:40:47;0.77;;;0.75;;
41436;SDS011;27178;49.460;10.850;2023-04-24T06:43:15;0.82;;;0.82;;
41436;SDS011;27178;49.460;10.850;2023-04-24T06:45:44;0.73;;;0.73;;
41436;SDS011;27178;49.460;10.850;2023-04-24T06:48:13;0.68;;;0.68;;
41436;SDS011;27178;49.460;10.850;2023-04-24T06:50:41;0.93;;;0.75;;
41436;SDS011;27178;49.460;10.850;2023-04-24T06:53:11;2.83;;;0.65;;
41436;SDS011;27178;49.460;10.850;2023-04-24T06:55:41;0.80;;;0.80;;
41436;SDS011;27178;49.460;10.850;2023-04-24T06:58:09;0.52;;;0.52;;
41436;SDS011;27178;49.460;10.850;2023-04-24T07:00:37;0.98;;;0.90;;
41436;SDS011;27178;49.460;10.850;2023-04-24T07:03:06;0.90;;;0.90;;
41436;SDS011;27178;49.460;10.850;2023-04-24T07:05:34;1.30;;;1.20;;
41436;SDS011;27178;49.460;10.850;2023-04-24T07:08:04;1.70;;;0.75;;
41436;SDS011;27178;49.460;10.850;2023-04-24T07:10:36;1.25;;;0.93;;
41436;SDS011;27178;49.460;10.850;2023-04-24T07:13:04;1.02;;;0.90;;
41436;SDS011;27178;49.460;10.850;2023-04-24T07:15:33;1.83;;;1.00;;
41436;SDS011;27178;49.460;10.850;2023-04-24T07:18:02;0.90;;;0.90;;
41436;SDS011;27178;49.460;10.850;2023-04-24T07:20:31;1.42;;;1.00;;
41436;SDS011;27178;49.460;10.850;2023-04-24T07:23:00;1.30;;;1.20;;
41436;SDS011;27178;49.460;10.850;2023-04-24T07:25:29;2.72;;;1.30;;
41436;SDS011;27178;49.460;10.850;2023-04-24T07:27:59;1.20;;;1.10;;
41436;SDS011;27178;49.460;10.850;2023-04-24T07:30:27;1.30;;;1.20;;
41436;SDS011;27178;49.460;10.850;2023-04-24T07:32:56;1.88;;;1.30;;
41436;SDS011;27178;49.460;10.850;2023-04-24T07:35:24;1.10;;;1.00;;
41436;SDS011;27178;49.460;10.850;2023-04-24T07:37:53;1.40;;;1.30;;
41436;SDS011;27178;49.460;10.850;2023-04-24T07:40:21;1.65;;;1.40;;
41436;SDS011;27178;49.460;10.850;2023-04-24T07:42:50;1.27;;;1.17;;
41436;SDS011;27178;49.460;10.850;2023-04-24T07:45:19;1.20;;;1.17;;
41436;SDS011;27178;49.460;10.850;2023-04-24T07:47:50;1.40;;;1.30;;
41436;SDS011;27178;49.460;10.850;2023-04-24T07:50:18;2.20;;;1.38;;
41436;SDS011;27178;49.460;10.850;2023-04-24T07:52:47;1.30;;;1.20;;
41436;SDS011;27178;49.460;10.850;2023-04-24T07:55:15;1.55;;;1.45;;
41436;SDS011;27178;49.460;10.850;2023-04-24T07:57:46;1.40;;;1.30;;
41436;SDS011;27178;49.460;10.850;2023-04-24T08:00:15;1.90;;;1.45;;
41436;SDS011;27178;49.460;10.850;2023-04-24T08:02:45;1.55;;;1.45;;
41436;SDS011;27178;49.460;10.850;2023-04-24T08:05:14;1.98;;;1.58;;
41436;SDS011;27178;49.460;10.850;2023-04-24T08:07:43;1.60;;;1.35;;
41436;SDS011;27178;49.460;10.850;2023-04-24T08:10:12;2.33;;;1.55;;
41436;SDS011;27178;49.460;10.850;2023-04-24T08:12:41;3.20;;;1.80;;
41436;SDS011;27178;49.460;10.850;2023-04-24T08:15:10;1.83;;;1.73;;
41436;SDS011;27178;49.460;10.850;2023-04-24T08:17:38;1.77;;;1.67;;
41436;SDS011;27178;49.460;10.850;2023-04-24T08:20:09;1.83;;;1.73;;
41436;SDS011;27178;49.460;10.850;2023-04-24T08:22:40;1.98;;;1.88;;
41436;SDS011;27178;49.460;10.850;2023-04-24T08:25:09;1.70;;;1.60;;
41436;SDS011;27178;49.460;10.850;2023-04-24T08:27:38;1.80;;;1.70;;
41436;SDS011;27178;49.460;10.850;2023-04-24T08:30:07;1.90;;;1.70;;
41436;SDS011;27178;49.460;10.850;2023-04-24T08:32:36;1.80;;;1.70;;
41436;SDS011;27178;49.460;10.850;2023-04-24T08:35:05;1.67;;;1.58;;
41436;SDS011;27178;49.460;10.850;2023-04-24T08:37:37;2.00;;;1.75;;
41436;SDS011;27178;49.460;10.850;2023-04-24T08:40:06;2.97;;;1.75;;
41436;SDS011;27178;49.460;10.850;2023-04-24T08:42:39;1.98;;;1.75;;
41436;SDS011;27178;49.460;10.850;2023-04-24T08:45:11;1.88;;;1.70;;
41436;SDS011;27178;49.460;10.850;2023-04-24T08:47:40;2.22;;;1.70;;
41436;SDS011;27178;49.460;10.850;2023-04-24T08:50:10;1.88;;;1.67;;
41436;SDS011;27178;49.460;10.850;2023-04-24T08:52:40;1.85;;;1.73;;
41436;SDS011;27178;49.460;10.850;2023-04-24T08:55:10;1.75;;;1.65;;
41436;SDS011;27178;49.460;10.850;2023-04-24T08:57:38;2.35;;;1.50;;
41436;SDS011;27178;49.460;10.850;2023-04-24T09:00:07;2.22;;;1.70;;
41436;SDS011;27178;49.460;10.850;2023-04-24T09:02:39;2.22;;;1.85;;
41436;SDS011;27178;49.460;10.850;2023-04-24T09:05:10;1.67;;;1.58;;
41436;SDS011;27178;49.460;10.850;2023-04-24T09:07:41;2.17;;;1.60;;
41436;SDS011;27178;49.460;10.850;2023-04-24T09:10:14;2.28;;;1.80;;
41436;SDS011;27178;49.460;10.850;2023-04-24T09:12:43;1.70;;;1.60;;
41436;SDS011;27178;49.460;10.850;2023-04-24T09:15:12;1.90;;;1.70;;
41436;SDS011;27178;49.460;10.850;2023-04-24T09:17:41;2.15;;;1.50;;
41436;SDS011;27178;49.460;10.850;2023-04-24T09:20:10;1.70;;;1.60;;
41436;SDS011;27178;49.460;10.850;2023-04-24T09:22:39;2.60;;;1.48;;
41436;SDS011;27178;49.460;10.850;2023-04-24T09:25:09;1.98;;;1.77;;
41436;SDS011;27178;49.460;10.850;2023-04-24T09:27:41;1.83;;;1.67;;
41436;SDS011;27178;49.460;10.850;2023-04-24T09:30:11;1.77;;;1.45;;
41436;SDS011;27178;49.460;10.850;2023-04-24T09:32:40;2.08;;;1.70;;
41436;SDS011;27178;49.460;10.850;2023-04-24T09:35:10;1.52;;;1.42;;
41436;SDS011;27178;49.460;10.850;2023-04-24T09:37:40;1.45;;;1.10;;
41436;SDS011;27178;49.460;10.850;2023-04-24T09:40:12;1.92;;;1.30;;
41436;SDS011;27178;49.460;10.850;2023-04-24T09:42:43;1.45;;;1.13;;
41436;SDS011;27178;49.460;10.850;2023-04-24T09:45:12;1.23;;;1.13;;
41436;SDS011;27178;49.460;10.850;2023-04-24T09:47:41;1.80;;;1.10;;
41436;SDS011;27178;49.460;10.850;2023-04-24T09:50:13;1.60;;;1.50;;
41436;SDS011;27178;49.460;10.850;2023-04-24T09:52:46;1.77;;;1.27;;
41436;SDS011;27178;49.460;10.850;2023-04-24T09:55:25;1.48;;;1.38;;
41436;SDS011;27178;49.460;10.850;2023-04-24T09:57:53;1.30;;;1.10;;
41436;SDS011;27178;49.460;10.850;2023-04-24T10:00:24;2.05;;;1.27;;
41436;SDS011;27178;49.460;10.850;2023-04-24T10:02:57;1.45;;;1.35;;
41436;SDS011;27178;49.460;10.850;2023-04-24T10:05:29;1.20;;;1.10;;
41436;SDS011;27178;49.460;10.850;2023-04-24T10:08:02;1.00;;;0.98;;
41436;SDS011;27178;49.460;10.850;2023-04-24T10:10:34;3.03;;;1.33;;
41436;SDS011;27178;49.460;10.850;2023-04-24T10:13:06;1.08;;;1.00;;
41436;SDS011;27178;49.460;10.850;2023-04-24T10:15:37;2.65;;;1.10;;
41436;SDS011;27178;49.460;10.850;2023-04-24T10:18:07;1.00;;;0.95;;
41436;SDS011;27178;49.460;10.850;2023-04-24T10:20:37;2.33;;;1.02;;
41436;SDS011;27178;49.460;10.850;2023-04-24T10:23:07;0.80;;;0.80;;
41436;SDS011;27178;49.460;10.850;2023-04-24T10:25:36;0.73;;;0.73;;
41436;SDS011;27178;49.460;10.850;2023-04-24T10:28:05;1.17;;;1.10;;
41436;SDS011;27178;49.460;10.850;2023-04-24T10:30:36;0.80;;;0.80;;
41436;SDS011;27178;49.460;10.850;2023-04-24T10:33:05;6.05;;;1.27;;
41436;SDS011;27178;49.460;10.850;2023-04-24T10:35:37;1.05;;;0.95;;
41436;SDS011;27178;49.460;10.850;2023-04-24T10:38:09;0.70;;;0.70;;
41436;SDS011;27178;49.460;10.850;2023-04-24T10:40:41;0.90;;;0.90;;
41436;SDS011;27178;49.460;10.850;2023-04-24T10:43:10;0.90;;;0.90;;
41436;SDS011;27178;49.460;10.850;2023-04-24T10:46:00;0.82;;;0.80;;
41436;SDS011;27178;49.460;10.850;2023-04-24T10:48:29;1.05;;;0.60;;
41436;SDS011;27178;49.460;10.850;2023-04-24T10:50:58;0.68;;;0.68;;
41436;SDS011;27178;49.460;10.850;2023-04-24T10:53:27;1.92;;;0.80;;
41436;SDS011;27178;49.460;10.850;2023-04-24T10:55:59;0.90;;;0.90;;
41436;SDS011;27178;49.460;10.850;2023-04-24T10:58:38;0.80;;;0.80;;
41436;SDS011;27178;49.460;10.850;2023-04-24T11:01:23;0.90;;;0.90;;
41436;SDS011;27178;49.460;10.850;2023-04-24T11:03:54;0.85;;;0.85;;
41436;SDS011;27178;49.460;10.850;2023-04-24T11:06:29;1.13;;;1.10;;
41436;SDS011;27178;49.460;10.850;2023-04-24T11:09:01;1.42;;;1.20;;
41436;SDS011;27178;49.460;10.850;2023-04-24T11:11:34;1.75;;;1.10;;
41436;SDS011;27178;49.460;10.850;2023-04-24T11:14:09;0.93;;;0.93;;
41436;SDS011;27178;49.460;10.850;2023-04-24T11:16:44;1.20;;;1.10;;
41436;SDS011;27178;49.460;10.850;2023-04-24T11:19:20;1.10;;;1.10;;
41436;SDS011;27178;49.460;10.850;2023-04-24T11:21:55;1.10;;;1.08;;
41436;SDS011;27178;49.460;10.850;2023-04-24T11:24:27;1.17;;;1.17;;
41436;SDS011;27178;49.460;10.850;2023-04-24T11:26:59;1.25;;;1.13;;
41436;SDS011;27178;49.460;10.850;2023-04-24T11:29:43;1.45;;;1.25;;
41436;SDS011;27178;49.460;10.850;2023-04-24T11:32:15;1.27;;;1.13;;
41436;SDS011;27178;49.460;10.850;2023-04-24T11:34:52;1.38;;;1.13;;
41436;SDS011;27178;49.460;10.850;2023-04-24T11:37:22;1.17;;;1.17;;
41436;SDS011;27178;49.460;10.850;2023-04-24T11:39:52;1.40;;;1.30;;
41436;SDS011;27178;49.460;10.850;2023-04-24T11:42:24;3.08;;;1.40;;
41436;SDS011;27178;49.460;10.850;2023-04-24T11:44:53;2.55;;;1.25;;
41436;SDS011;27178;49.460;10.850;2023-04-24T11:47:29;1.20;;;1.20;;
41436;SDS011;27178;49.460;10.850;2023-04-24T11:50:00;2.10;;;1.33;;
41436;SDS011;27178;49.460;10.850;2023-04-24T11:52:29;1.63;;;1.23;;
41436;SDS011;27178;49.460;10.850;2023-04-24T11:54:59;3.17;;;1.40;;
41436;SDS011;27178;49.460;10.850;2023-04-24T11:57:29;1.17;;;1.10;;
41436;SDS011;27178;49.460;10.850;2023-04-24T12:00:01;2.75;;;1.33;;
41436;SDS011;27178;49.460;10.850;2023-04-24T12:02:32;1.10;;;1.00;;
41436;SDS011;27178;49.460;10.850;2023-04-24T12:05:04;1.40;;;1.30;;
41436;SDS011;27178;49.460;10.850;2023-04-24T12:07:39;1.42;;;1.33;;
41436;SDS011;27178;49.460;10.850;2023-04-24T12:10:10;1.25;;;1.15;;
41436;SDS011;27178;49.460;10.850;2023-04-24T12:12:39;1.77;;;1.60;;
41436;SDS011;27178;49.460;10.850;2023-04-24T12:15:09;2.63;;;1.52;;
41436;SDS011;27178;49.460;10.850;2023-04-24T12:17:40;1.40;;;1.30;;
41436;SDS011;27178;49.460;10.850;2023-04-24T12:20:10;1.48;;;1.38;;
41436;SDS011;27178;49.460;10.850;2023-04-24T12:22:43;1.35;;;1.10;;
41436;SDS011;27178;49.460;10.850;2023-04-24T12:25:13;1.10;;;1.10;;
41436;SDS011;27178;49.460;10.850;2023-04-24T12:27:44;1.40;;;1.30;;
41436;SDS011;27178;49.460;10.850;2023-04-24T12:30:14;1.00;;;1.00;;
41436;SDS011;27178;49.460;10.850;2023-04-24T12:32:44;1.08;;;1.00;;
41436;SDS011;27178;49.460;10.850;2023-04-24T12:35:18;2.47;;;1.00;;
41436;SDS011;27178;49.460;10.850;2023-04-24T12:37:47;1.05;;;0.95;;
41436;SDS011;27178;49.460;10.850;2023-04-24T12:40:16;1.00;;;1.00;;
41436;SDS011;27178;49.460;10.850;2023-04-24T12:42:48;1.10;;;1.08;;
41436;SDS011;27178;49.460;10.850;2023-04-24T12:45:18;1.40;;;1.30;;
41436;SDS011;27178;49.460;10.850;2023-04-24T12:47:46;9.15;;;1.33;;
41436;SDS011;27178;49.460;10.850;2023-04-24T12:50:16;1.05;;;1.05;;
41436;SDS011;27178;49.460;10.850;2023-04-24T12:52:44;1.00;;;1.00;;
41436;SDS011;27178;49.460;10.850;2023-04-24T12:55:13;1.13;;;1.13;;
41436;SDS011;27178;49.460;10.850;2023-04-24T12:57:41;1.00;;;0.98;;
41436;SDS011;27178;49.460;10.850;2023-04-24T13:00:11;1.30;;;1.20;;
41436;SDS011;27178;49.460;10.850;2023-04-24T13:02:42;1.67;;;1.23;;
41436;SDS011;27178;49.460;10.850;2023-04-24T13:05:10;1.15;;;1.10;;
41436;SDS011;27178;49.460;10.850;2023-04-24T13:07:40;1.20;;;1.02;;
41436;SDS011;27178;49.460;10.850;2023-04-24T13:10:09;1.70;;;1.30;;
41436;SDS011;27178;49.460;10.850;2023-04-24T13:12:38;1.30;;;1.20;;
41436;SDS011;27178;49.460;10.850;2023-04-24T13:15:07;2.53;;;1.20;;
41436;SDS011;27178;49.460;10.850;2023-04-24T13:17:37;14.85;;;2.15;;
41436;SDS011;27178;49.460;10.850;2023-04-24T13:20:06;1.00;;;1.00;;
41436;SDS011;27178;49.460;10.850;2023-04-24T13:22:35;1.40;;;1.30;;
41436;SDS011;27178;49.460;10.850;2023-04-24T13:25:04;1.10;;;0.93;;
41436;SDS011;27178;49.460;10.850;2023-04-24T13:27:34;1.17;;;1.00;;
41436;SDS011;27178;49.460;10.850;2023-04-24T13:30:02;1.30;;;1.20;;
41436;SDS011;27178;49.460;10.850;2023-04-24T13:32:31;0.80;;;0.80;;
41436;SDS011;27178;49.460;10.850;2023-04-24T13:35:03;1.15;;;1.13;;
41436;SDS011;27178;49.460;10.850;2023-04-24T13:37:32;1.20;;;1.15;;
41436;SDS011;27178;49.460;10.850;2023-04-24T13:40:00;1.63;;;1.10;;
41436;SDS011;27178;49.460;10.850;2023-04-24T13:42:28;1.20;;;1.10;;
41436;SDS011;27178;49.460;10.850;2023-04-24T13:44:57;1.13;;;1.13;;
41436;SDS011;27178;49.460;10.850;2023-04-24T13:47:27;1.45;;;1.20;;
41436;SDS011;27178;49.460;10.850;2023-04-24T13:49:56;1.23;;;1.20;;
41436;SDS011;27178;49.460;10.850;2023-04-24T13:52:26;1.88;;;1.52;;
41436;SDS011;27178;49.460;10.850;2023-04-24T13:54:54;1.50;;;1.40;;
41436;SDS011;27178;49.460;10.850;2023-04-24T13:57:22;1.55;;;1.45;;
41436;SDS011;27178;49.460;10.850;2023-04-24T13:59:51;1.40;;;1.30;;
41436;SDS011;27178;49.460;10.850;2023-04-24T14:02:19;1.70;;;1.60;;
41436;SDS011;27178;49.460;10.850;2023-04-24T14:04:48;1.38;;;1.27;;
41436;SDS011;27178;49.460;10.850;2023-04-24T14:07:16;1.52;;;1.40;;
41436;SDS011;27178;49.460;10.850;2023-04-24T14:09:46;1.52;;;1.40;;
41436;SDS011;27178;49.460;10.850;2023-04-24T14:12:16;1.65;;;1.55;;
41436;SDS011;27178;49.460;10.850;2023-04-24T14:14:46;1.42;;;1.33;;
41436;SDS011;27178;49.460;10.850;2023-04-24T14:17:14;1.45;;;1.35;;
41436;SDS011;27178;49.460;10.850;2023-04-24T14:19:42;1.48;;;1.33;;
41436;SDS011;27178;49.460;10.850;2023-04-24T14:22:10;1.52;;;1.42;;
41436;SDS011;27178;49.460;10.850;2023-04-24T14:24:38;1.73;;;1.25;;
41436;SDS011;27178;49.460;10.850;2023-04-24T14:27:09;1.50;;;1.40;;
41436;SDS011;27178;49.460;10.850;2023-04-24T14:29:37;1.13;;;1.10;;
41436;SDS011;27178;49.460;10.850;2023-04-24T14:32:05;0.90;;;0.90;;
41436;SDS011;27178;49.460;10.850;2023-04-24T14:34:35;1.50;;;1.33;;
41436;SDS011;27178;49.460;10.850;2023-04-24T14:37:03;1.05;;;1.05;;
41436;SDS011;27178;49.460;10.850;2023-04-24T14:39:32;1.40;;;1.30;;
41436;SDS011;27178;49.460;10.850;2023-04-24T14:42:01;1.35;;;1.25;;
41436;SDS011;27178;49.460;10.850;2023-04-24T14:44:30;1.40;;;1.30;;
41436;SDS011;27178;49.460;10.850;2023-04-24T14:46:59;1.25;;;1.15;;